Terminal Aerodrome Forecast
Issued by NWS

Home | Current Version | Previous Version | Text Only | Print | Product List | Glossary On
Versions: 1 2 3 4 5 6 7 8 9 10 11 12 13 14 15 16 17 18 19 20 21 22 23 24
950
FTUS41 KPBZ 290520
TAFDUJ
TAF
KDUJ 290520Z 2906/3006 34008KT P6SM SCT006 BKN015
      TEMPO 2906/2908 BKN006
     FM291500 35007KT P6SM SCT025
     FM291800 02006KT P6SM SKC=

USA.gov is the U.S. government's official web portal to all federal, state and local government web resources and services.